Time;durP1;ratioP1;P1;durP2;ratioP2;P2;SDS_P1;SDS_P2;PMS_P1;PMS_P2;Temp;Humidity;BMP_temperature;BMP_pressure;BME280_temperature;BME280_humidity;BME280_pressure;Samples;Min_cycle;Max_cycle;Signal;HPM_P1;HPM_P2
2022/11/03 00:00:25;;;;;;;8.55;2.08;;;13.30;99.90;;;;;;5054702;28;20547;-60
2022/11/03 00:02:50;;;;;;;8.68;2.72;;;13.30;99.90;;;;;;5054809;28;20099;-60
2022/11/03 00:08:04;;;;;;;4.75;1.75;;;13.30;99.90;;;;;;5054794;28;20522;-60
2022/11/03 00:10:30;;;;;;;15.60;2.55;;;13.00;99.90;;;;;;5055068;28;20040;-60
2022/11/03 00:12:55;;;;;;;16.30;2.72;;;13.30;99.90;;;;;;5054219;28;20071;-59
2022/11/03 00:15:21;;;;;;;11.55;2.67;;;13.30;99.90;;;;;;5054516;28;20135;-59
2022/11/03 00:17:47;;;;;;;13.57;3.17;;;13.00;99.90;;;;;;5054760;28;20040;-59
2022/11/03 00:20:12;;;;;;;10.43;2.25;;;13.20;99.90;;;;;;5053998;28;20470;-60
2022/11/03 00:22:38;;;;;;;9.93;2.70;;;13.10;99.90;;;;;;5054367;28;20457;-61
2022/11/03 00:25:04;;;;;;;10.75;2.90;;;13.20;99.90;;;;;;5054459;28;20090;-59
2022/11/03 00:27:29;;;;;;;9.70;2.47;;;13.40;99.90;;;;;;5054307;28;20120;-59
2022/11/03 00:29:55;;;;;;;13.23;2.60;;;13.40;99.90;;;;;;5053842;28;20123;-60
2022/11/03 00:32:21;;;;;;;13.27;2.67;;;13.40;99.90;;;;;;5054114;28;20036;-60
2022/11/03 00:34:46;;;;;;;4.40;1.92;;;13.10;99.90;;;;;;5052511;28;20540;-59
2022/11/03 00:37:12;;;;;;;10.27;2.85;;;13.10;99.90;;;;;;5054476;28;20082;-59
2022/11/03 00:39:37;;;;;;;8.77;2.60;;;13.30;99.90;;;;;;5054179;28;20043;-59
2022/11/03 00:42:03;;;;;;;10.75;2.47;;;13.40;99.90;;;;;;5054210;28;20063;-59
2022/11/03 00:44:28;;;;;;;11.45;2.80;;;13.10;99.90;;;;;;5053887;28;20033;-59
2022/11/03 00:46:55;;;;;;;10.60;2.53;;;13.30;99.90;;;;;;5054024;28;20376;-60
2022/11/03 00:49:20;;;;;;;11.13;2.60;;;13.30;99.90;;;;;;5054022;28;20132;-60
2022/11/03 00:51:46;;;;;;;12.23;2.53;;;13.40;99.90;;;;;;5054657;28;20542;-60
2022/11/03 00:54:11;;;;;;;11.95;2.40;;;13.20;99.90;;;;;;5053217;28;20458;-59
2022/11/03 00:56:38;;;;;;;8.70;3.00;;;13.30;99.90;;;;;;5054319;28;20037;-59
2022/11/03 00:59:05;;;;;;;15.30;2.30;;;13.30;99.90;;;;;;5053654;28;20115;-59
2022/11/03 01:01:39;;;;;;;13.95;3.28;;;13.30;99.90;;;;;;5053761;28;20391;-60
2022/11/03 01:06:50;;;;;;;6.43;2.13;;;13.00;99.90;;;;;;5050608;28;20056;-59
2022/11/03 01:09:27;;;;;;;11.65;2.90;;;13.20;99.90;;;;;;5053666;28;20092;-59
2022/11/03 01:12:04;;;;;;;8.63;2.28;;;13.00;99.90;;;;;;5053357;28;20067;-59
2022/11/03 01:14:33;;;;;;;11.13;2.67;;;13.20;99.90;;;;;;5053015;28;20384;-59
2022/11/03 01:16:59;;;;;;;11.75;2.55;;;13.20;99.90;;;;;;5053432;28;20052;-59
2022/11/03 01:19:25;;;;;;;7.93;2.63;;;13.20;99.90;;;;;;5053055;28;20044;-59
2022/11/03 01:21:52;;;;;;;10.98;2.92;;;13.20;99.90;;;;;;5052985;28;20033;-59
2022/11/03 01:24:18;;;;;;;15.23;2.75;;;13.00;99.90;;;;;;5053093;28;20127;-60
2022/11/03 01:26:43;;;;;;;8.73;2.40;;;13.20;99.90;;;;;;5053216;28;20467;-60
2022/11/03 01:29:09;;;;;;;16.02;2.55;;;13.20;99.90;;;;;;5053181;28;20110;-59
2022/11/03 01:31:35;;;;;;;9.73;2.47;;;13.00;99.90;;;;;;5051933;28;20135;-59
2022/11/03 01:34:00;;;;;;;7.05;2.25;;;13.00;99.90;;;;;;5051555;28;20344;-59
2022/11/03 01:36:26;;;;;;;6.68;2.17;;;13.40;99.90;;;;;;5053227;28;20037;-59
2022/11/03 01:38:55;;;;;;;11.30;3.45;;;13.00;99.90;;;;;;5053204;28;20091;-59
2022/11/03 01:41:23;;;;;;;8.48;2.72;;;13.60;99.90;;;;;;5053148;28;20040;-60
2022/11/03 01:44:11;;;;;;;11.95;2.50;;;13.00;99.90;;;;;;5052530;28;20037;-59
2022/11/03 01:47:17;;;;;;;12.40;2.50;;;13.00;99.90;;;;;;5049322;28;20121;-60
2022/11/03 01:49:58;;;;;;;8.50;2.70;;;13.30;99.90;;;;;;5052919;28;20115;-59
2022/11/03 01:52:36;;;;;;;12.65;3.00;;;13.00;99.90;;;;;;5052582;28;20055;-59
2022/11/03 01:55:09;;;;;;;11.45;3.30;;;13.00;99.90;;;;;;5048167;28;20048;-59
2022/11/03 01:57:54;;;;;;;13.88;2.90;;;13.00;99.90;;;;;;5052308;28;20063;-59
2022/11/03 02:00:20;;;;;;;10.35;2.42;;;13.40;99.90;;;;;;5052428;28;20514;-59
2022/11/03 02:02:46;;;;;;;10.68;3.08;;;13.40;99.90;;;;;;5068340;22;20053;-83
2022/11/03 02:05:15;;;;;;;10.20;2.70;;;13.20;99.90;;;;;;5016439;28;20046;-84
2022/11/03 02:07:50;;;;;;;13.25;2.85;;;13.50;99.90;;;;;;5016448;28;20036;-83
2022/11/03 02:10:16;;;;;;;10.70;2.75;;;14.70;99.90;;;;;;5036878;22;20504;-70
2022/11/03 02:12:42;;;;;;;10.43;2.90;;;13.20;99.90;;;;;;5043796;28;20061;-70
2022/11/03 02:15:12;;;;;;;14.85;3.00;;;13.30;99.90;;;;;;5043289;28;20044;-70
2022/11/03 02:17:39;;;;;;;11.73;2.67;;;13.50;99.90;;;;;;5050101;28;20070;-70
2022/11/03 02:20:23;;;;;;;13.50;3.20;;;13.50;99.90;;;;;;5023202;28;20398;-71
2022/11/03 02:23:09;;;;;;;12.80;2.78;;;13.50;99.90;;;;;;5038415;28;20037;-71
2022/11/03 02:25:40;;;;;;;23.38;3.03;;;13.50;99.90;;;;;;5051126;28;20072;-71
2022/11/03 02:28:05;;;;;;;11.77;2.40;;;13.70;99.90;;;;;;5044567;28;20090;-70
2022/11/03 02:30:51;;;;;;;6.63;2.35;;;14.00;99.90;;;;;;5039111;28;20037;-71
2022/11/03 02:33:29;;;;;;;10.90;3.05;;;13.70;99.90;;;;;;5043359;28;20049;-70
2022/11/03 02:36:35;;;;;;;8.05;2.33;;;13.50;99.90;;;;;;5047355;28;20064;-71
2022/11/03 02:39:33;;;;;;;15.45;3.33;;;13.60;99.90;;;;;;5025909;28;20128;-71
2022/11/03 02:42:02;;;;;;;10.27;2.88;;;13.80;99.90;;;;;;5050971;28;20508;-71
2022/11/03 02:44:28;;;;;;;14.30;2.50;;;13.50;99.90;;;;;;5048492;28;20044;-70
2022/11/03 02:47:08;;;;;;;12.15;2.50;;;13.70;99.90;;;;;;5042354;28;20068;-71
2022/11/03 02:50:03;;;;;;;7.50;2.47;;;13.50;99.90;;;;;;5049817;28;20043;-71
2022/11/03 02:52:40;;;;;;;13.98;2.50;;;13.40;99.90;;;;;;5065054;28;20076;-71
2022/11/03 02:55:37;;;;;;;8.43;2.55;;;13.40;99.90;;;;;;5050409;28;20086;-71
2022/11/03 02:58:11;;;;;;;12.18;2.72;;;13.50;99.90;;;;;;5045502;28;20366;-70
2022/11/03 03:01:01;;;;;;;10.68;2.38;;;13.70;99.90;;;;;;5047747;28;20048;-70
2022/11/03 03:03:40;;;;;;;10.60;2.70;;;13.60;99.90;;;;;;5046363;28;20041;-71
2022/11/03 03:06:15;;;;;;;13.95;2.90;;;13.40;99.90;;;;;;5034535;28;20498;-71
2022/11/03 03:08:45;;;;;;;12.48;2.67;;;13.60;99.90;;;;;;5030765;28;20061;-71
2022/11/03 03:11:13;;;;;;;4.88;1.98;;;13.40;99.90;;;;;;5046223;28;20065;-71
2022/11/03 03:13:42;;;;;;;14.40;3.05;;;13.70;99.90;;;;;;5041383;28;20052;-71
2022/11/03 03:16:15;;;;;;;12.15;2.65;;;13.70;99.90;;;;;;5043717;28;20344;-71
2022/11/03 03:19:04;;;;;;;15.65;3.13;;;13.50;99.90;;;;;;5046564;28;20079;-71
2022/11/03 03:21:36;;;;;;;9.30;3.15;;;13.50;99.90;;;;;;5046503;28;20045;-70
2022/11/03 03:24:26;;;;;;;6.93;1.98;;;13.70;99.90;;;;;;5049689;28;20052;-71
2022/11/03 03:26:57;;;;;;;9.32;2.15;;;13.40;99.90;;;;;;5034203;28;20049;-71
2022/11/03 03:29:37;;;;;;;11.52;2.30;;;13.70;99.90;;;;;;5048708;28;20555;-70
2022/11/03 03:32:10;;;;;;;9.48;2.50;;;13.80;99.90;;;;;;5049904;28;20061;-71
2022/11/03 03:34:41;;;;;;;9.45;2.30;;;13.80;99.90;;;;;;5049668;28;20405;-71
2022/11/03 03:37:09;;;;;;;8.80;2.65;;;13.60;99.90;;;;;;5049748;28;20401;-71
2022/11/03 03:39:38;;;;;;;11.02;3.08;;;13.70;99.90;;;;;;5049767;28;20044;-71
2022/11/03 03:42:07;;;;;;;6.90;1.98;;;13.60;99.90;;;;;;5049726;28;20134;-71
2022/11/03 03:44:33;;;;;;;11.50;2.80;;;13.60;99.90;;;;;;5049336;28;20049;-70
2022/11/03 03:47:02;;;;;;;7.80;2.72;;;14.00;99.90;;;;;;5048721;28;20037;-71
2022/11/03 03:49:28;;;;;;;11.05;2.90;;;13.70;99.90;;;;;;5041820;28;20033;-71
2022/11/03 03:51:53;;;;;;;11.77;2.35;;;13.70;99.90;;;;;;5032804;28;20521;-71
2022/11/03 03:54:19;;;;;;;6.38;2.00;;;13.80;99.90;;;;;;5036855;28;20452;-71
2022/11/03 03:56:59;;;;;;;11.95;2.63;;;13.40;99.90;;;;;;5044642;28;20045;-70
2022/11/03 03:59:25;;;;;;;8.52;2.40;;;13.70;99.90;;;;;;5033173;28;20049;-70
2022/11/03 04:01:50;;;;;;;11.68;2.13;;;13.30;99.90;;;;;;5046667;28;20040;-71
2022/11/03 04:04:16;;;;;;;8.27;2.58;;;13.30;99.90;;;;;;5049129;28;20394;-70
2022/11/03 04:06:41;;;;;;;12.15;2.75;;;13.60;99.90;;;;;;5049223;28;20374;-70
2022/11/03 04:09:08;;;;;;;13.93;2.50;;;13.40;99.90;;;;;;5049565;28;20466;-70
2022/11/03 04:22:32;;;;;;;9.23;2.15;;;13.30;99.90;;;;;;5032209;28;20117;-71
2022/11/03 04:24:58;;;;;;;14.38;2.72;;;13.30;99.90;;;;;;5048729;28;20041;-71
2022/11/03 04:27:34;;;;;;;12.27;2.78;;;13.20;99.90;;;;;;5044703;28;20040;-70
2022/11/03 04:30:18;;;;;;;14.10;2.45;;;13.30;99.90;;;;;;5043885;28;20029;-70
2022/11/03 04:32:46;;;;;;;11.50;2.90;;;12.80;99.90;;;;;;5048480;28;20132;-70
2022/11/03 04:35:16;;;;;;;7.53;2.17;;;13.00;99.90;;;;;;5047992;28;20127;-70
2022/11/03 04:37:43;;;;;;;14.65;2.80;;;12.90;99.90;;;;;;5049159;28;20094;-70
2022/11/03 04:40:14;;;;;;;8.68;2.65;;;12.80;99.90;;;;;;5049175;28;20064;-70
2022/11/03 04:42:39;;;;;;;22.85;3.85;;;13.00;99.90;;;;;;5053087;28;20037;-71
2022/11/03 04:45:21;;;;;;;7.57;2.08;;;13.10;99.90;;;;;;5051933;28;20043;-71
2022/11/03 04:47:47;;;;;;;7.57;2.60;;;13.30;99.90;;;;;;5049424;28;20040;-70
2022/11/03 04:50:21;;;;;;;8.38;2.33;;;13.00;99.90;;;;;;5044317;28;20040;-71
2022/11/03 04:52:50;;;;;;;9.10;2.22;;;13.10;99.90;;;;;;5052381;28;20497;-70
2022/11/03 04:55:18;;;;;;;14.82;2.53;;;13.40;99.90;;;;;;5052803;28;20124;-71
2022/11/03 04:57:44;;;;;;;12.20;2.63;;;13.50;99.90;;;;;;5038242;28;20402;-71
2022/11/03 05:00:18;;;;;;;10.40;2.35;;;13.50;99.90;;;;;;5036276;28;20132;-70
2022/11/03 05:02:45;;;;;;;11.52;3.00;;;13.50;99.90;;;;;;5030496;28;20127;-71
2022/11/03 05:05:18;;;;;;;10.43;2.47;;;13.40;99.90;;;;;;5048052;28;20124;-70
2022/11/03 05:07:47;;;;;;;11.07;2.53;;;13.10;99.90;;;;;;5046048;28;20059;-70
2022/11/03 05:10:16;;;;;;;15.52;2.40;;;13.60;99.90;;;;;;5051321;28;20060;-71
2022/11/03 05:12:42;;;;;;;8.90;2.50;;;13.60;99.90;;;;;;5051810;28;20592;-71
2022/11/03 05:15:31;;;;;;;10.98;3.45;;;13.20;99.90;;;;;;5052192;28;20041;-70
2022/11/03 05:17:58;;;;;;;8.43;2.92;;;13.30;99.90;;;;;;5048872;28;20517;-70
2022/11/03 05:20:34;;;;;;;9.95;3.47;;;13.30;99.90;;;;;;5052340;28;20029;-70
2022/11/03 05:23:00;;;;;;;;;;;13.70;99.90;;;;;;5053007;28;20045;-71
2022/11/03 05:25:40;;;;;;;15.33;2.40;;;13.80;99.90;;;;;;5048206;28;19921;-71
2022/11/03 05:28:22;;;;;;;12.00;2.72;;;13.40;99.90;;;;;;5033274;28;20086;-70
2022/11/03 05:30:50;;;;;;;13.48;2.67;;;13.50;99.90;;;;;;5052074;28;20097;-70
2022/11/03 05:33:34;;;;;;;9.48;2.45;;;13.30;99.90;;;;;;5050168;28;20045;-70
2022/11/03 05:36:12;;;;;;;11.43;2.35;;;13.30;99.90;;;;;;5034401;28;20041;-70
2022/11/03 05:38:38;;;;;;;29.65;3.33;;;13.70;99.90;;;;;;5051878;28;20458;-70
2022/11/03 05:41:15;;;;;;;12.55;2.75;;;13.70;99.90;;;;;;5050188;28;20039;-71
2022/11/03 05:43:40;;;;;;;12.88;2.63;;;13.30;99.90;;;;;;5050162;28;20068;-70
2022/11/03 05:46:09;;;;;;;8.75;2.40;;;13.40;99.90;;;;;;5048271;28;20509;-71
2022/11/03 05:48:37;;;;;;;12.15;2.83;;;13.30;99.90;;;;;;5041309;28;20068;-70
2022/11/03 05:51:17;;;;;;;9.30;2.47;;;13.50;99.90;;;;;;5050353;28;20059;-71
2022/11/03 05:53:44;;;;;;;12.10;3.05;;;13.30;99.90;;;;;;5044149;28;20098;-70
2022/11/03 05:56:18;;;;;;;8.43;2.60;;;13.70;99.90;;;;;;5046272;28;20108;-71
2022/11/03 05:58:44;;;;;;;8.45;2.60;;;13.70;99.90;;;;;;5050542;28;20086;-71
2022/11/03 06:01:18;;;;;;;11.60;2.30;;;13.30;99.90;;;;;;5047462;28;20051;-71
2022/11/03 06:03:45;;;;;;;11.63;2.63;;;13.60;99.90;;;;;;5040365;28;20088;-70
2022/11/03 06:06:23;;;;;;;6.53;2.17;;;13.50;99.90;;;;;;5046333;28;20048;-71
2022/11/03 06:08:50;;;;;;;8.60;2.58;;;13.90;99.90;;;;;;5034108;28;20049;-70
2022/11/03 06:11:27;;;;;;;11.10;2.45;;;13.80;99.90;;;;;;5047490;28;20053;-71
2022/11/03 06:13:55;;;;;;;8.85;1.95;;;13.60;99.90;;;;;;5039649;28;20060;-71
2022/11/03 06:16:43;;;;;;;7.45;2.40;;;13.90;99.90;;;;;;5050337;28;20044;-71
2022/11/03 06:19:28;;;;;;;11.98;2.80;;;13.50;99.90;;;;;;5047839;28;20040;-70
2022/11/03 06:22:00;;;;;;;8.88;2.45;;;13.90;99.90;;;;;;5057704;28;20037;-71
2022/11/03 06:24:30;;;;;;;12.57;2.38;;;13.70;99.90;;;;;;5049161;28;20049;-71
2022/11/03 06:26:57;;;;;;;12.27;2.30;;;13.60;99.90;;;;;;5043725;28;20564;-70
2022/11/03 06:29:23;;;;;;;10.13;2.35;;;13.60;99.90;;;;;;5048729;28;20099;-70
2022/11/03 06:31:51;;;;;;;6.47;1.95;;;13.90;99.90;;;;;;5047028;28;20041;-71
2022/11/03 06:34:40;;;;;;;9.50;2.67;;;13.90;99.90;;;;;;5044923;28;20041;-71
2022/11/03 06:37:19;;;;;;;12.13;2.08;;;13.50;99.90;;;;;;5046128;28;20450;-70
2022/11/03 06:39:45;;;;;;;9.23;2.22;;;13.90;99.90;;;;;;5042258;28;20044;-70
2022/11/03 06:42:13;;;;;;;7.13;2.28;;;13.40;99.90;;;;;;5042450;28;20055;-71
2022/11/03 06:44:45;;;;;;;5.60;2.00;;;13.50;99.90;;;;;;5049983;28;20103;-71
2022/11/03 06:47:25;;;;;;;5.88;2.13;;;13.90;99.90;;;;;;5045111;28;20052;-71
2022/11/03 06:49:56;;;;;;;7.32;1.95;;;13.40;99.90;;;;;;5043207;28;20029;-70
2022/11/03 06:52:36;;;;;;;8.07;2.55;;;13.80;99.90;;;;;;5041389;28;20129;-71
2022/11/03 06:55:11;;;;;;;7.68;2.10;;;13.40;99.90;;;;;;5019930;28;20083;-70
2022/11/03 06:57:39;;;;;;;9.82;2.58;;;13.30;99.90;;;;;;5042042;28;20445;-71
2022/11/03 07:00:28;;;;;;;10.63;2.40;;;13.70;99.90;;;;;;5049990;28;20045;-72
2022/11/03 07:03:09;;;;;;;5.13;1.88;;;13.40;99.90;;;;;;5032221;28;20044;-71
2022/11/03 07:05:35;;;;;;;8.45;2.30;;;13.90;99.90;;;;;;5033207;28;20120;-71
2022/11/03 07:08:10;;;;;;;8.52;2.40;;;13.60;99.90;;;;;;5044335;28;20072;-68
2022/11/03 07:10:36;;;;;;;5.70;1.58;;;14.00;99.90;;;;;;5030155;28;20053;-70
2022/11/03 07:13:17;;;;;;;9.13;2.55;;;14.00;99.90;;;;;;5018593;28;20071;-71
2022/11/03 07:15:44;;;;;;;9.82;1.77;;;13.70;99.90;;;;;;5047104;28;20051;-69
2022/11/03 07:18:23;;;;;;;8.18;2.30;;;13.60;99.90;;;;;;5047849;28;20486;-69
2022/11/03 07:20:51;;;;;;;9.88;2.33;;;14.10;99.90;;;;;;5041837;28;20041;-66
2022/11/03 07:23:21;;;;;;;9.52;3.08;;;13.70;99.90;;;;;;5051311;28;20033;-66
2022/11/03 07:25:53;;;;;;;6.50;2.15;;;13.80;99.90;;;;;;5049293;28;20064;-66
2022/11/03 07:28:20;;;;;;;8.40;2.40;;;14.20;99.90;;;;;;5046187;28;20466;-66
2022/11/03 07:30:46;;;;;;;9.15;2.13;;;13.80;99.90;;;;;;5042567;28;20388;-66
2022/11/03 07:33:22;;;;;;;7.30;2.10;;;13.70;99.90;;;;;;5039693;28;20796;-66
2022/11/03 07:35:49;;;;;;;11.48;2.47;;;14.00;99.90;;;;;;5024100;28;20482;-65
2022/11/03 07:38:20;;;;;;;5.45;1.80;;;14.00;99.90;;;;;;5037398;28;20047;-66
2022/11/03 07:40:46;;;;;;;8.15;2.33;;;13.80;99.90;;;;;;5038924;28;20044;-66
2022/11/03 07:43:22;;;;;;;7.60;2.13;;;13.80;99.90;;;;;;5040074;28;20393;-66
2022/11/03 07:45:50;;;;;;;6.03;2.28;;;14.00;99.90;;;;;;5038733;28;20037;-66
2022/11/03 07:48:24;;;;;;;9.25;2.67;;;14.30;99.90;;;;;;5039027;28;20807;-66
2022/11/03 07:50:56;;;;;;;7.45;2.33;;;14.10;99.90;;;;;;5046263;28;20493;-64
2022/11/03 07:53:36;;;;;;;12.50;2.47;;;13.90;99.90;;;;;;5039799;28;20052;-65
2022/11/03 07:56:12;;;;;;;7.35;2.40;;;14.30;99.90;;;;;;5046516;28;20090;-64
2022/11/03 07:58:40;;;;;;;6.22;1.90;;;13.90;99.90;;;;;;5035553;28;20041;-64
2022/11/03 08:01:25;;;;;;;8.73;2.35;;;13.90;99.90;;;;;;5049309;28;20191;-64
2022/11/03 08:03:54;;;;;;;10.35;2.58;;;13.90;99.90;;;;;;5048502;28;20128;-65
2022/11/03 08:06:19;;;;;;;9.27;2.60;;;14.30;99.90;;;;;;5048157;28;20037;-65
2022/11/03 08:08:45;;;;;;;8.75;2.53;;;14.30;99.90;;;;;;5042689;28;20165;-65
2022/11/03 08:11:11;;;;;;;8.40;2.35;;;14.30;99.90;;;;;;5047839;28;20052;-65
2022/11/03 08:13:36;;;;;;;6.20;1.77;;;14.00;99.90;;;;;;5043556;28;20082;-65
2022/11/03 08:16:02;;;;;;;9.32;2.40;;;14.40;99.90;;;;;;5045993;28;20037;-65
2022/11/03 08:18:28;;;;;;;7.35;1.92;;;14.00;99.90;;;;;;5055271;28;20033;-64
2022/11/03 08:20:53;;;;;;;6.40;1.85;;;14.50;99.90;;;;;;5054368;28;20033;-65
2022/11/03 08:23:19;;;;;;;8.40;2.33;;;14.00;99.90;;;;;;5052163;28;20040;-65
2022/11/03 08:25:45;;;;;;;8.80;2.40;;;14.60;99.90;;;;;;5049373;28;20183;-64
2022/11/03 08:28:10;;;;;;;8.70;2.45;;;14.20;99.90;;;;;;5030665;28;20110;-65
2022/11/03 08:30:36;;;;;;;9.50;2.67;;;14.20;99.90;;;;;;5050124;28;20493;-65
2022/11/03 08:33:01;;;;;;;7.95;2.63;;;14.70;99.90;;;;;;5046261;28;20076;-65
2022/11/03 08:35:27;;;;;;;4.13;1.98;;;14.40;99.90;;;;;;5053101;28;20514;-65
2022/11/03 08:37:52;;;;;;;9.75;2.85;;;14.90;99.90;;;;;;5048867;28;20102;-65
2022/11/03 08:40:18;;;;;;;7.88;2.25;;;14.90;99.90;;;;;;5048581;28;20035;-65
2022/11/03 08:42:44;;;;;;;5.47;2.20;;;14.90;99.90;;;;;;5052324;28;20044;-65
2022/11/03 08:45:10;;;;;;;7.03;2.60;;;15.00;99.90;;;;;;5053304;28;20037;-65
2022/11/03 08:47:36;;;;;;;8.38;2.33;;;14.50;99.90;;;;;;5038200;28;20541;-65
2022/11/03 08:50:02;;;;;;;19.00;2.58;;;14.70;99.90;;;;;;5052655;28;20147;-65
2022/11/03 08:52:28;;;;;;;10.75;2.47;;;14.90;99.90;;;;;;5052672;28;20095;-65
2022/11/03 08:54:53;;;;;;;8.68;2.30;;;14.90;99.90;;;;;;5045618;28;20475;-65
2022/11/03 08:57:19;;;;;;;13.10;2.38;;;15.40;99.90;;;;;;5043435;28;20096;-65
2022/11/03 08:59:45;;;;;;;8.23;2.13;;;14.80;99.90;;;;;;5043945;28;20033;-65
2022/11/03 09:02:10;;;;;;;10.38;2.50;;;14.80;99.90;;;;;;5054173;28;20036;-65
2022/11/03 09:04:36;;;;;;;10.05;2.58;;;14.60;99.90;;;;;;5050079;28;20040;-65
2022/11/03 09:07:01;;;;;;;9.10;2.67;;;14.70;99.90;;;;;;5049270;28;20507;-65
2022/11/03 09:09:27;;;;;;;8.35;2.25;;;14.80;99.90;;;;;;5042284;28;20084;-65
2022/11/03 09:11:52;;;;;;;16.38;2.97;;;14.80;99.90;;;;;;5046645;28;20394;-65
2022/11/03 09:14:18;;;;;;;6.50;2.53;;;14.40;99.90;;;;;;5052916;28;20521;-65
2022/11/03 09:16:44;;;;;;;7.45;2.03;;;14.40;99.90;;;;;;5029475;28;20072;-65
2022/11/03 09:19:09;;;;;;;6.20;2.58;;;14.90;99.90;;;;;;5047886;28;20135;-65
2022/11/03 09:21:35;;;;;;;10.13;2.33;;;14.50;99.90;;;;;;5051925;28;20075;-65
2022/11/03 09:24:00;;;;;;;11.73;2.50;;;14.80;99.90;;;;;;5051803;28;20037;-65
2022/11/03 09:26:26;;;;;;;9.93;2.35;;;14.80;99.90;;;;;;5050929;28;20045;-65
2022/11/03 09:28:52;;;;;;;7.45;2.65;;;14.80;99.90;;;;;;5050201;28;20060;-65
2022/11/03 09:31:18;;;;;;;9.18;2.55;;;14.90;99.90;;;;;;5042053;28;20045;-65
2022/11/03 09:33:44;;;;;;;12.45;2.83;;;14.30;99.90;;;;;;5045862;28;20038;-65
2022/11/03 09:36:10;;;;;;;10.13;2.83;;;14.80;99.90;;;;;;5049628;28;20041;-65
2022/11/03 09:38:35;;;;;;;4.57;2.90;;;14.80;99.90;;;;;;5047842;28;20379;-65
2022/11/03 09:41:03;;;;;;;10.18;2.67;;;14.70;99.90;;;;;;5044681;28;20033;-65
2022/11/03 09:43:30;;;;;;;10.52;2.50;;;14.50;99.90;;;;;;5050590;28;20025;-65
2022/11/03 09:45:56;;;;;;;8.77;2.63;;;14.90;99.90;;;;;;5049624;28;20045;-65
2022/11/03 09:48:22;;;;;;;10.25;2.47;;;14.50;99.90;;;;;;5049890;28;20504;-65
2022/11/03 09:50:52;;;;;;;7.80;2.42;;;14.50;99.90;;;;;;5048676;28;20037;-65
2022/11/03 09:53:18;;;;;;;10.73;3.65;;;14.50;99.90;;;;;;5050903;28;20048;-65
2022/11/03 09:55:44;;;;;;;10.00;2.40;;;14.80;99.90;;;;;;5045288;28;20040;-65
2022/11/03 09:58:13;;;;;;;10.65;2.40;;;14.60;99.90;;;;;;5049355;28;20063;-65
2022/11/03 10:00:39;;;;;;;11.48;2.95;;;15.10;99.90;;;;;;5034813;28;20106;-65
2022/11/03 10:03:05;;;;;;;12.52;2.45;;;15.10;99.90;;;;;;5047762;28;20040;-65
2022/11/03 10:05:32;;;;;;;12.00;3.20;;;15.00;99.90;;;;;;5049560;28;20044;-65
2022/11/03 10:08:03;;;;;;;9.05;2.22;;;14.90;99.90;;;;;;5049018;28;20551;-65
2022/11/03 10:10:30;;;;;;;7.97;2.42;;;15.30;99.90;;;;;;5050407;28;20114;-65
2022/11/03 10:12:56;;;;;;;14.38;2.80;;;14.80;99.90;;;;;;5046945;28;20121;-65
2022/11/03 10:15:24;;;;;;;6.07;2.30;;;15.10;99.90;;;;;;5047400;28;20063;-65
2022/11/03 10:17:50;;;;;;;9.77;2.85;;;15.30;99.90;;;;;;5043736;28;20467;-66
2022/11/03 10:20:19;;;;;;;12.50;2.70;;;15.30;99.90;;;;;;5048196;28;20155;-66
2022/11/03 10:22:46;;;;;;;13.10;2.83;;;14.80;99.90;;;;;;5046759;28;20041;-65
2022/11/03 10:25:42;;;;;;;8.45;2.58;;;14.90;99.90;;;;;;5049633;28;20563;-66
2022/11/03 10:28:13;;;;;;;13.82;2.67;;;15.30;99.90;;;;;;5049847;28;20048;-65
2022/11/03 10:31:07;;;;;;;8.10;2.20;;;15.00;99.90;;;;;;5045074;28;20508;-65
2022/11/03 10:33:39;;;;;;;12.13;2.63;;;15.20;99.90;;;;;;5038589;28;20110;-65
2022/11/03 10:36:21;;;;;;;8.85;2.72;;;15.50;99.90;;;;;;5045670;28;20064;-65
2022/11/03 10:38:47;;;;;;;8.43;2.25;;;15.10;99.90;;;;;;5042337;28;21204;-66
2022/11/03 10:41:15;;;;;;;8.32;2.55;;;15.30;99.90;;;;;;5045965;28;20040;-65
2022/11/03 10:43:43;;;;;;;7.32;2.30;;;15.20;99.90;;;;;;5046853;28;20407;-65
2022/11/03 10:46:12;;;;;;;10.95;2.78;;;15.20;99.90;;;;;;5044215;28;20467;-65
2022/11/03 10:48:37;;;;;;;10.23;2.50;;;15.10;99.90;;;;;;5042858;28;20122;-65
2022/11/03 10:51:03;;;;;;;9.70;2.20;;;15.00;99.90;;;;;;5050161;28;20045;-65
2022/11/03 10:53:30;;;;;;;6.28;2.30;;;15.00;99.90;;;;;;5051328;28;20486;-65
2022/11/03 10:55:56;;;;;;;12.23;2.78;;;15.30;99.90;;;;;;5049045;28;20045;-65
2022/11/03 10:58:22;;;;;;;9.68;2.53;;;15.50;99.90;;;;;;5047871;28;20041;-66
2022/11/03 11:00:47;;;;;;;7.50;2.40;;;15.50;99.90;;;;;;5040364;28;20052;-66
2022/11/03 11:03:13;;;;;;;7.65;2.72;;;15.30;99.90;;;;;;5047355;28;20048;-66
2022/11/03 11:05:46;;;;;;;12.80;2.78;;;15.70;99.90;;;;;;5049722;28;20490;-66
2022/11/03 11:08:21;;;;;;;11.73;2.33;;;15.90;99.90;;;;;;5045637;28;20041;-65
2022/11/03 11:10:47;;;;;;;12.13;2.40;;;16.00;99.90;;;;;;5049496;28;20061;-66
2022/11/03 11:13:24;;;;;;;8.93;2.72;;;15.70;99.90;;;;;;5031329;28;20494;-65
2022/11/03 11:15:58;;;;;;;7.60;2.40;;;15.60;99.90;;;;;;5048391;28;20528;-65
2022/11/03 11:18:26;;;;;;;11.15;3.17;;;15.90;99.90;;;;;;5049102;28;20045;-65
2022/11/03 11:20:57;;;;;;;9.65;2.53;;;15.80;99.90;;;;;;5049802;28;20124;-66
2022/11/03 11:23:26;;;;;;;8.68;2.10;;;15.70;99.90;;;;;;5032718;28;20045;-65
2022/11/03 11:26:28;;;;;;;9.07;2.47;;;15.60;99.90;;;;;;5048085;28;20049;-65
2022/11/03 11:29:09;;;;;;;12.18;2.58;;;15.50;99.90;;;;;;5044131;28;20548;-65
2022/11/03 11:31:44;;;;;;;9.27;2.50;;;15.40;99.90;;;;;;5046956;28;20090;-65
2022/11/03 11:34:15;;;;;;;9.52;2.50;;;15.50;99.90;;;;;;5032148;28;20060;-65
2022/11/03 11:36:53;;;;;;;11.10;2.53;;;15.30;99.90;;;;;;5048010;28;20045;-66
2022/11/03 11:39:42;;;;;;;11.38;2.40;;;15.50;99.90;;;;;;5048291;28;20044;-65
2022/11/03 11:42:20;;;;;;;8.05;1.95;;;15.30;99.90;;;;;;5035791;28;20048;-65
2022/11/03 11:44:56;;;;;;;11.95;3.08;;;15.90;99.90;;;;;;5049328;28;20036;-66
2022/11/03 11:47:34;;;;;;;8.10;2.22;;;15.60;99.90;;;;;;5050526;28;20087;-66
2022/11/03 11:50:02;;;;;;;5.28;2.15;;;15.60;99.90;;;;;;5049189;28;20045;-65
2022/11/03 11:52:29;;;;;;;4.85;2.22;;;15.50;99.90;;;;;;5048589;28;20436;-65
2022/11/03 11:54:54;;;;;;;7.38;2.60;;;15.40;99.90;;;;;;5046182;28;20045;-65
2022/11/03 11:57:21;;;;;;;9.07;2.60;;;15.30;99.90;;;;;;5047579;28;20037;-65
2022/11/03 11:59:48;;;;;;;7.30;2.33;;;15.30;99.90;;;;;;5046875;28;20040;-65
2022/11/03 12:02:32;;;;;;;6.57;1.85;;;15.50;99.90;;;;;;5049330;28;20615;-65
2022/11/03 12:05:01;;;;;;;12.80;2.97;;;15.30;99.90;;;;;;5045997;28;20040;-65
2022/11/03 12:07:36;;;;;;;8.98;1.92;;;15.30;99.90;;;;;;5040469;28;20021;-65
2022/11/03 12:10:13;;;;;;;12.13;2.67;;;15.30;99.90;;;;;;5025807;28;20052;-64
2022/11/03 12:12:39;;;;;;;7.80;2.20;;;15.60;99.90;;;;;;5047624;28;20120;-65
2022/11/03 12:15:04;;;;;;;10.68;2.50;;;15.90;99.90;;;;;;5046766;28;20155;-65
2022/11/03 12:17:31;;;;;;;8.27;1.95;;;15.60;99.90;;;;;;5048842;28;20581;-65
2022/11/03 12:19:56;;;;;;;8.35;2.47;;;15.30;99.90;;;;;;5045307;28;20114;-65
2022/11/03 12:22:22;;;;;;;8.25;2.40;;;15.50;99.90;;;;;;5044732;28;20373;-65
2022/11/03 12:24:48;;;;;;;12.40;2.72;;;15.20;99.90;;;;;;5046596;28;20044;-65
2022/11/03 12:27:22;;;;;;;7.63;2.75;;;15.50;99.90;;;;;;5048953;28;20095;-65
2022/11/03 12:29:49;;;;;;;10.15;2.90;;;15.50;99.90;;;;;;5047596;28;20033;-64
2022/11/03 12:32:15;;;;;;;9.35;2.45;;;15.20;99.90;;;;;;5044989;28;20074;-65
2022/11/03 12:34:41;;;;;;;11.20;2.50;;;15.30;99.90;;;;;;5048248;28;20119;-66
2022/11/03 12:37:07;;;;;;;10.05;2.42;;;15.60;99.90;;;;;;5039575;28;20040;-66
2022/11/03 12:39:33;;;;;;;8.52;2.88;;;15.50;99.90;;;;;;5032208;28;20504;-66
2022/11/03 12:41:59;;;;;;;11.18;2.67;;;15.20;99.90;;;;;;5049104;28;20041;-66
2022/11/03 12:44:24;;;;;;;13.52;3.20;;;15.30;99.90;;;;;;5046106;28;20091;-65
2022/11/03 12:46:50;;;;;;;12.18;2.90;;;15.50;99.90;;;;;;5040450;28;20041;-66
2022/11/03 12:49:15;;;;;;;10.65;2.65;;;15.60;99.90;;;;;;5048911;28;20099;-66
2022/11/03 12:51:41;;;;;;;7.20;2.30;;;15.40;99.90;;;;;;5048263;28;20055;-68
2022/11/03 12:54:06;;;;;;;6.97;2.22;;;15.30;99.90;;;;;;5043093;28;20075;-66
2022/11/03 12:56:32;;;;;;;10.38;2.10;;;16.50;99.90;;;;;;5047840;28;20129;-66
2022/11/03 12:58:57;;;;;;;11.77;2.33;;;15.20;99.90;;;;;;5042313;28;20033;-67
2022/11/03 13:01:23;;;;;;;4.50;1.63;;;15.40;99.90;;;;;;5041339;28;20038;-66
2022/11/03 13:03:48;;;;;;;10.38;2.28;;;15.50;99.90;;;;;;5049638;28;20390;-66
2022/11/03 13:06:14;;;;;;;6.88;1.98;;;15.20;99.90;;;;;;5033362;28;20049;-66
2022/11/03 13:08:40;;;;;;;9.50;2.70;;;15.40;99.90;;;;;;5048881;28;20040;-66
2022/11/03 13:12:29;;;;;;;9.13;2.72;;;15.40;99.90;;;;;;5045858;28;20062;-66
2022/11/03 13:13:52;;;;;;;5.53;1.92;;;15.30;99.90;;;;;;5048189;28;20041;-67
2022/11/03 13:16:18;;;;;;;6.50;2.40;;;15.20;99.90;;;;;;5047736;28;20431;-66